Denise A. Bouchard — WDH3802 — position and weather

sailwx.info

Track history (hours):
 
Tides and Currents Weather Stations Pressure Air Temp Water Temp Dewpoint Dewpoint Depression Visibility Wind Speed Wind Dir Waves Ship Positions

Denise A. Bouchard

Owner: Tug Denise A, Bouchard Corp, Melville, NY. More information available from US FCC via Universal Licensing System and Coast Guard Vessel Documentation Center.

Last reported at 2017-Oct-18 04:49 UTC. Time now 2017-Oct-18 22:34 UTC.
Position N 42°14' W 070°28'.

Length 160 m; draft 5 m.

Type: Tug. MMSI: 367611060.

Date/timePositionNaut miles runAvg speedWind from/ knotsBaromVisibWave heightAir tempDewpointWater temp
2017-Oct-18 04:49N 42°14' W 070°28'3 8.5
2017-Oct-18 04:30N 42°17' W 070°28'4 8.4
2017-Oct-18 04:00N 42°21' W 070°28'4 8.4
2017-Oct-18 03:30N 42°25' W 070°28'4 8.3
2017-Oct-18 03:00N 42°29' W 070°28'4 8.3
2017-Oct-18 02:30N 42°33' W 070°28'4 8.2
2017-Oct-18 02:01N 42°37' W 070°28'4 8.1
2017-Oct-18 01:29N 42°42' W 070°28'19 0.6
2017-Oct-16 18:54N 42°60' W 070°20'3 8.4
2017-Oct-16 18:30N 42°56' W 070°22'4 8.5
2017-Oct-16 18:01N 42°53' W 070°24'4 8.4
2017-Oct-16 17:30N 42°49' W 070°25'4 8.1
2017-Oct-16 17:00N 42°45' W 070°27'4 8.3
2017-Oct-16 16:30N 42°41' W 070°29'4 8.3
2017-Oct-16 16:01N 42°37' W 070°30'4 8.3
2017-Oct-16 15:30N 42°32' W 070°30'4 8.4
2017-Oct-16 15:01N 42°28' W 070°30'4 8.4
2017-Oct-16 14:30N 42°24' W 070°30'172 7.4
2017-Oct-15 15:12N 40°33' W 073°25'3 8.3
2017-Oct-15 14:48N 40°32' W 073°29'7 8.4
2017-Oct-15 13:58N 40°31' W 073°38'4 8.3
2017-Oct-15 13:29N 40°30' W 073°44'4 8.4
2017-Oct-15 12:59N 40°30' W 073°49'4 8.4
2017-Oct-15 12:29N 40°30' W 073°55'4 9.5
2017-Oct-15 12:00N 40°31' W 074°00'4 8.6
2017-Oct-15 11:30N 40°35' W 074°02'4 8.3
2017-Oct-15 11:00N 40°39' W 074°05'4 8.4
2017-Oct-15 10:30N 40°39' W 074°10'3 6.2
2017-Oct-15 10:00N 40°36' W 074°12'1 1.9
2017-Oct-15 09:29N 40°35' W 074°13'0 0.1
2017-Oct-15 08:33N 40°35' W 074°12'0 3.7
2017-Oct-15 08:30N 40°35' W 074°12'0 0.1
2017-Oct-15 08:00N 40°35' W 074°12'0 0.0
2017-Oct-15 07:27N 40°35' W 074°12'0 0.0
2017-Oct-15 06:57N 40°35' W 074°12'0 0.0
2017-Oct-15 06:18N 40°35' W 074°12'0 0.0
2017-Oct-15 05:54N 40°35' W 074°12'0 0.0
2017-Oct-15 05:30N 40°35' W 074°12'0 0.0
2017-Oct-15 04:54N 40°35' W 074°12'0 0.0
2017-Oct-15 04:30N 40°35' W 074°12'0 0.0
2017-Oct-15 03:27N 40°35' W 074°12'0 0.0
2017-Oct-15 01:39N 40°35' W 074°12'0 0.0
2017-Oct-15 01:09N 40°35' W 074°12'0 0.0
2017-Oct-15 00:51N 40°35' W 074°12'0 0.0
2017-Oct-14 22:54N 40°35' W 074°12'0 0.0
2017-Oct-14 22:24N 40°35' W 074°12'3 0.2
2017-Oct-14 06:22N 40°33' W 074°15'2 5.9
2017-Oct-14 06:00N 40°34' W 074°13'5 9.3
2017-Oct-14 05:30N 40°39' W 074°11'4 5.7
2017-Oct-14 04:45N 40°39' W 074°06'0 0.0
2017-Oct-14 04:27N 40°39' W 074°06'0 0.0
2017-Oct-14 03:45N 40°39' W 074°06'0 0.0
2017-Oct-14 03:30N 40°39' W 074°06'0 0.0
2017-Oct-14 03:00N 40°39' W 074°06'0 0.0
2017-Oct-14 02:27N 40°39' W 074°06'0 0.0
2017-Oct-14 02:00N 40°39' W 074°06'0 0.0
2017-Oct-14 01:27N 40°39' W 074°06'0 0.0
2017-Oct-14 00:57N 40°39' W 074°06'0 0.0
2017-Oct-14 00:30N 40°39' W 074°06'0 0.0
2017-Oct-13 23:45N 40°39' W 074°06'0 0.0
2017-Oct-13 23:27N 40°39' W 074°06'0 0.0
2017-Oct-13 22:57N 40°39' W 074°06'0 0.0
2017-Oct-13 22:21N 40°39' W 074°06'0 0.0
2017-Oct-13 21:57N 40°39' W 074°06'0 0.0
2017-Oct-13 21:27N 40°39' W 074°06'0 0.0
2017-Oct-13 20:57N 40°39' W 074°06'0 0.0
2017-Oct-13 20:30N 40°39' W 074°06'0 0.0
2017-Oct-13 20:00N 40°39' W 074°06'0 0.6
2017-Oct-13 19:24N 40°39' W 074°05'0 0.0
2017-Oct-13 18:43N 40°39' W 074°05'0 0.0
2017-Oct-13 18:30N 40°39' W 074°05'0 0.0
2017-Oct-13 18:00N 40°39' W 074°05'0 0.0
2017-Oct-13 17:29N 40°39' W 074°05'1 1.9
2017-Oct-13 16:43N 40°39' W 074°07'0 0.0
2017-Oct-13 16:25N 40°39' W 074°07'0 0.0
2017-Oct-13 16:00N 40°38' W 074°07'0 0.0
2017-Oct-13 15:30N 40°38' W 074°07'0 0.0
2017-Oct-13 15:00N 40°39' W 074°07'0 0.0
2017-Oct-13 14:29N 40°39' W 074°07'0 0.0
2017-Oct-13 14:00N 40°39' W 074°07'0 0.0
2017-Oct-13 13:24N 40°39' W 074°07'0 0.0
2017-Oct-13 13:00N 40°38' W 074°07'0 0.0
2017-Oct-13 12:30N 40°39' W 074°07'0 0.0
2017-Oct-13 12:00N 40°39' W 074°07'0 0.0
2017-Oct-13 11:30N 40°38' W 074°07'0 0.0
2017-Oct-13 11:00N 40°38' W 074°07'0 0.0
2017-Oct-13 10:30N 40°38' W 074°07'0 0.0
2017-Oct-13 09:59N 40°39' W 074°07'0 0.0
2017-Oct-13 09:30N 40°39' W 074°07'0 0.0
2017-Oct-13 09:00N 40°39' W 074°07'0 0.0
2017-Oct-13 08:30N 40°39' W 074°07'0 0.0
2017-Oct-13 08:00N 40°38' W 074°07'0 0.0
2017-Oct-13 07:30N 40°39' W 074°07'0 0.0
2017-Oct-13 07:00N 40°38' W 074°07'0 0.0
2017-Oct-13 06:30N 40°39' W 074°07'0 0.0
2017-Oct-13 06:00N 40°39' W 074°07'1 1.8
2017-Oct-13 05:30N 40°39' W 074°08'3 6.4
2017-Oct-13 04:59N 40°37' W 074°12'4 7.4
2017-Oct-13 04:29N 40°33' W 074°14'1 1.6
2017-Oct-13 03:54N 40°33' W 074°15'0 0.2
2017-Oct-13 02:54N 40°33' W 074°15'2 4.1
2017-Oct-13 02:25N 40°34' W 074°13'3 7.1
2017-Oct-13 02:00N 40°37' W 074°12'3 6.2
2017-Oct-13 01:30N 40°39' W 074°09'2 1.2
2017-Oct-13 00:11N 40°39' W 074°07'0 1.0
2017-Oct-13 00:00N 40°39' W 074°07'5 9.2
2017-Oct-12 23:30N 40°41' W 074°01'4 8.4
2017-Oct-12 23:00N 40°44' W 073°58'3 5.2
2017-Oct-12 22:30N 40°42' W 074°00'4 7.4
2017-Oct-12 22:00N 40°39' W 074°03'3 6.0
2017-Oct-12 21:30N 40°41' W 074°00'0 0.2
2017-Oct-12 20:56N 40°41' W 074°00'0 0.1
2017-Oct-12 20:24N 40°42' W 074°00'3 8.2
2017-Oct-12 20:00N 40°39' W 074°03'3 5.1
2017-Oct-12 19:29N 40°39' W 074°07'3 7.2
2017-Oct-12 19:00N 40°38' W 074°11'5 1.1
2017-Oct-12 14:55N 40°34' W 074°13'4 9.4
2017-Oct-12 14:30N 40°38' W 074°12'4 3.7
2017-Oct-12 13:30N 40°39' W 074°07'0 0.0
2017-Oct-12 12:57N 40°39' W 074°07'0 0.0
2017-Oct-12 12:27N 40°39' W 074°07'0 0.0
2017-Oct-12 11:51N 40°38' W 074°07'0 0.0
2017-Oct-12 11:21N 40°38' W 074°07'0 0.0
2017-Oct-12 11:00N 40°39' W 074°07'0 0.0
2017-Oct-12 10:21N 40°38' W 074°07'0 0.0
2017-Oct-12 09:57N 40°38' W 074°07'0 0.0
2017-Oct-12 09:21N 40°39' W 074°07'0 0.0
2017-Oct-12 08:51N 40°39' W 074°07'0 0.0
2017-Oct-12 08:27N 40°38' W 074°07'0 0.0
2017-Oct-12 07:57N 40°39' W 074°07'0 0.0
2017-Oct-12 07:21N 40°39' W 074°07'0 0.0
2017-Oct-12 06:57N 40°38' W 074°07'0 0.1
2017-Oct-12 06:30N 40°39' W 074°07'0 0.5
2017-Oct-12 05:40N 40°39' W 074°07'0 1.8
2017-Oct-12 05:30N 40°39' W 074°06'0 0.5
2017-Oct-12 04:37N 40°39' W 074°06'0 0.0
2017-Oct-12 04:25N 40°39' W 074°06'0 0.0
2017-Oct-12 03:53N 40°39' W 074°06'0 0.0
2017-Oct-12 03:30N 40°39' W 074°06'2 3.1
2017-Oct-12 03:00N 40°39' W 074°04'510.3
2017-Oct-12 02:30N 40°43' W 073°59'5 9.8
2017-Oct-12 02:00N 40°47' W 073°56'2 4.0
2017-Oct-12 01:30N 40°45' W 073°57'3 6.2
2017-Oct-12 01:00N 40°42' W 073°59'4 8.2
2017-Oct-12 00:30N 40°40' W 074°03'2 3.5
2017-Oct-12 00:00N 40°39' W 074°05'0 0.1
2017-Oct-11 23:30N 40°39' W 074°05'2 3.6
2017-Oct-11 23:00N 40°38' W 074°07'0 0.0
2017-Oct-11 22:29N 40°38' W 074°07'0 0.0
2017-Oct-11 22:00N 40°39' W 074°07'0 0.0
2017-Oct-11 21:28N 40°39' W 074°07'0 0.0
2017-Oct-11 20:55N 40°38' W 074°07'0 0.0
2017-Oct-11 20:30N 40°39' W 074°07'0 0.0
2017-Oct-11 20:00N 40°38' W 074°07'0 0.0
2017-Oct-11 19:30N 40°39' W 074°07'0 0.0
2017-Oct-11 19:00N 40°39' W 074°07'0 0.2
2017-Oct-11 18:30N 40°39' W 074°07'0 0.1
2017-Oct-11 18:01N 40°39' W 074°07'4 8.9
2017-Oct-11 17:30N 40°41' W 074°02'4 8.5
2017-Oct-11 17:01N 40°44' W 073°58'173 6.3
2017-Oct-10 13:37N 41°58' W 070°29'1 8.5
2017-Oct-10 13:28N 41°59' W 070°30'7 8.3
2017-Oct-10 12:37N 42°06' W 070°31'1 8.3
2017-Oct-10 12:29N 42°07' W 070°32'4 8.7
2017-Oct-10 12:00N 42°11' W 070°34'4 9.1
2017-Oct-10 11:30N 42°14' W 070°38'5 9.1
2017-Oct-10 11:00N 42°18' W 070°42'5 9.0
2017-Oct-10 10:30N 42°21' W 070°47'4 8.7
2017-Oct-10 10:00N 42°23' W 070°52'4 8.8
2017-Oct-10 09:31N 42°20' W 070°57'4 8.4
2017-Oct-10 09:00N 42°22' W 071°02'2 3.1
2017-Oct-10 08:30N 42°23' W 071°02'1 1.5
2017-Oct-10 08:00N 42°24' W 071°01'0 0.0
2017-Oct-10 07:31N 42°24' W 071°01'0 0.0
2017-Oct-10 07:00N 42°24' W 071°01'0 0.0
2017-Oct-10 06:30N 42°24' W 071°01'0 0.0
2017-Oct-10 05:05N 42°24' W 071°01'0 0.0
2017-Oct-10 04:59N 42°24' W 071°01'0 0.0
2017-Oct-10 04:29N 42°24' W 071°01'0 0.0
2017-Oct-10 03:59N 42°24' W 071°01'0 0.0
2017-Oct-10 03:23N 42°24' W 071°01'0 0.0
2017-Oct-10 02:59N 42°24' W 071°01'0 0.0
2017-Oct-10 02:23N 42°24' W 071°01'0 0.0
2017-Oct-10 01:50N 42°24' W 071°01'0 0.0
2017-Oct-10 01:26N 42°24' W 071°01'0 0.0
2017-Oct-10 00:59N 42°24' W 071°01'0 0.0
2017-Oct-10 00:23N 42°24' W 071°01'0 0.0
2017-Oct-09 23:59N 42°24' W 071°01'0 0.0
2017-Oct-09 23:29N 42°24' W 071°01'0 0.0
2017-Oct-09 22:59N 42°24' W 071°01'0 0.0
2017-Oct-09 22:29N 42°24' W 071°01'0 0.0
2017-Oct-09 22:01N 42°24' W 071°01'0 0.0
2017-Oct-09 21:30N 42°24' W 071°01'0 0.0
2017-Oct-09 21:00N 42°24' W 071°01'0 0.0
2017-Oct-09 20:30N 42°24' W 071°01'0 0.0
2017-Oct-09 20:00N 42°24' W 071°01'0 0.0
2017-Oct-09 19:30N 42°24' W 071°01'0 0.3
2017-Oct-09 19:00N 42°23' W 071°01'2 4.3
2017-Oct-09 18:30N 42°22' W 071°02'4 7.4
2017-Oct-09 18:01N 42°20' W 070°58'4 8.0
2017-Oct-09 17:30N 42°23' W 070°54'4 8.2
2017-Oct-09 17:00N 42°22' W 070°48'4 8.8
2017-Oct-09 16:30N 42°20' W 070°43'92 3.5
2017-Oct-08 14:09N 41°14' W 072°10'1 6.2
2017-Oct-08 14:00N 41°14' W 072°11'4 7.1
2017-Oct-08 13:29N 41°13' W 072°16'3 7.2
2017-Oct-08 13:01N 41°12' W 072°20'4 7.2
2017-Oct-08 12:30N 41°11' W 072°25'4 7.9
2017-Oct-08 12:00N 41°10' W 072°30'4 8.7
2017-Oct-08 11:30N 41°11' W 072°36'4 9.2
2017-Oct-08 11:01N 41°11' W 072°41'  
Track history (hours):
 
Tides and Currents Weather Stations Pressure Air Temp Water Temp Dewpoint Dewpoint Depression Visibility Wind Speed Wind Dir Waves Ship Positions

Denise A. Bouchard

Owner: Tug Denise A, Bouchard Corp, Melville, NY. More information available from US FCC via Universal Licensing System and Coast Guard Vessel Documentation Center.

Last reported at 2017-Oct-18 04:49 UTC. Time now 2017-Oct-18 22:34 UTC.
Position N 42°14' W 070°28'.

Length 160 m; draft 5 m.

Type: Tug. MMSI: 367611060.

Date/timePositionNaut miles runAvg speedWind from/ knotsBaromVisibWave heightAir tempDewpointWater temp
2017-Oct-18 04:49N 42°14' W 070°28'3 8.5
2017-Oct-18 04:30N 42°17' W 070°28'4 8.4
2017-Oct-18 04:00N 42°21' W 070°28'4 8.4
2017-Oct-18 03:30N 42°25' W 070°28'4 8.3
2017-Oct-18 03:00N 42°29' W 070°28'4 8.3
2017-Oct-18 02:30N 42°33' W 070°28'4 8.2
2017-Oct-18 02:01N 42°37' W 070°28'4 8.1
2017-Oct-18 01:29N 42°42' W 070°28'19 0.6
2017-Oct-16 18:54N 42°60' W 070°20'3 8.4
2017-Oct-16 18:30N 42°56' W 070°22'4 8.5
2017-Oct-16 18:01N 42°53' W 070°24'4 8.4
2017-Oct-16 17:30N 42°49' W 070°25'4 8.1
2017-Oct-16 17:00N 42°45' W 070°27'4 8.3
2017-Oct-16 16:30N 42°41' W 070°29'4 8.3
2017-Oct-16 16:01N 42°37' W 070°30'4 8.3
2017-Oct-16 15:30N 42°32' W 070°30'4 8.4
2017-Oct-16 15:01N 42°28' W 070°30'4 8.4
2017-Oct-16 14:30N 42°24' W 070°30'172 7.4
2017-Oct-15 15:12N 40°33' W 073°25'3 8.3
2017-Oct-15 14:48N 40°32' W 073°29'7 8.4
2017-Oct-15 13:58N 40°31' W 073°38'4 8.3
2017-Oct-15 13:29N 40°30' W 073°44'4 8.4
2017-Oct-15 12:59N 40°30' W 073°49'4 8.4
2017-Oct-15 12:29N 40°30' W 073°55'4 9.5
2017-Oct-15 12:00N 40°31' W 074°00'4 8.6
2017-Oct-15 11:30N 40°35' W 074°02'4 8.3
2017-Oct-15 11:00N 40°39' W 074°05'4 8.4
2017-Oct-15 10:30N 40°39' W 074°10'3 6.2
2017-Oct-15 10:00N 40°36' W 074°12'1 1.9
2017-Oct-15 09:29N 40°35' W 074°13'0 0.1
2017-Oct-15 08:33N 40°35' W 074°12'0 3.7
2017-Oct-15 08:30N 40°35' W 074°12'0 0.1
2017-Oct-15 08:00N 40°35' W 074°12'0 0.0
2017-Oct-15 07:27N 40°35' W 074°12'0 0.0
2017-Oct-15 06:57N 40°35' W 074°12'0 0.0
2017-Oct-15 06:18N 40°35' W 074°12'0 0.0
2017-Oct-15 05:54N 40°35' W 074°12'0 0.0
2017-Oct-15 05:30N 40°35' W 074°12'0 0.0
2017-Oct-15 04:54N 40°35' W 074°12'0 0.0
2017-Oct-15 04:30N 40°35' W 074°12'0 0.0
2017-Oct-15 03:27N 40°35' W 074°12'0 0.0
2017-Oct-15 01:39N 40°35' W 074°12'0 0.0
2017-Oct-15 01:09N 40°35' W 074°12'0 0.0
2017-Oct-15 00:51N 40°35' W 074°12'0 0.0
2017-Oct-14 22:54N 40°35' W 074°12'0 0.0
2017-Oct-14 22:24N 40°35' W 074°12'3 0.2
2017-Oct-14 06:22N 40°33' W 074°15'2 5.9
2017-Oct-14 06:00N 40°34' W 074°13'5 9.3
2017-Oct-14 05:30N 40°39' W 074°11'4 5.7
2017-Oct-14 04:45N 40°39' W 074°06'0 0.0
2017-Oct-14 04:27N 40°39' W 074°06'0 0.0
2017-Oct-14 03:45N 40°39' W 074°06'0 0.0
2017-Oct-14 03:30N 40°39' W 074°06'0 0.0
2017-Oct-14 03:00N 40°39' W 074°06'0 0.0
2017-Oct-14 02:27N 40°39' W 074°06'0 0.0
2017-Oct-14 02:00N 40°39' W 074°06'0 0.0
2017-Oct-14 01:27N 40°39' W 074°06'0 0.0
2017-Oct-14 00:57N 40°39' W 074°06'0 0.0
2017-Oct-14 00:30N 40°39' W 074°06'0 0.0
2017-Oct-13 23:45N 40°39' W 074°06'0 0.0
2017-Oct-13 23:27N 40°39' W 074°06'0 0.0
2017-Oct-13 22:57N 40°39' W 074°06'0 0.0
2017-Oct-13 22:21N 40°39' W 074°06'0 0.0
2017-Oct-13 21:57N 40°39' W 074°06'0 0.0
2017-Oct-13 21:27N 40°39' W 074°06'0 0.0
2017-Oct-13 20:57N 40°39' W 074°06'0 0.0
2017-Oct-13 20:30N 40°39' W 074°06'0 0.0
2017-Oct-13 20:00N 40°39' W 074°06'0 0.6
2017-Oct-13 19:24N 40°39' W 074°05'0 0.0
2017-Oct-13 18:43N 40°39' W 074°05'0 0.0
2017-Oct-13 18:30N 40°39' W 074°05'0 0.0
2017-Oct-13 18:00N 40°39' W 074°05'0 0.0
2017-Oct-13 17:29N 40°39' W 074°05'1 1.9
2017-Oct-13 16:43N 40°39' W 074°07'0 0.0
2017-Oct-13 16:25N 40°39' W 074°07'0 0.0
2017-Oct-13 16:00N 40°38' W 074°07'0 0.0
2017-Oct-13 15:30N 40°38' W 074°07'0 0.0
2017-Oct-13 15:00N 40°39' W 074°07'0 0.0
2017-Oct-13 14:29N 40°39' W 074°07'0 0.0
2017-Oct-13 14:00N 40°39' W 074°07'0 0.0
2017-Oct-13 13:24N 40°39' W 074°07'0 0.0
2017-Oct-13 13:00N 40°38' W 074°07'0 0.0
2017-Oct-13 12:30N 40°39' W 074°07'0 0.0
2017-Oct-13 12:00N 40°39' W 074°07'0 0.0
2017-Oct-13 11:30N 40°38' W 074°07'0 0.0
2017-Oct-13 11:00N 40°38' W 074°07'0 0.0
2017-Oct-13 10:30N 40°38' W 074°07'0 0.0
2017-Oct-13 09:59N 40°39' W 074°07'0 0.0
2017-Oct-13 09:30N 40°39' W 074°07'0 0.0
2017-Oct-13 09:00N 40°39' W 074°07'0 0.0
2017-Oct-13 08:30N 40°39' W 074°07'0 0.0
2017-Oct-13 08:00N 40°38' W 074°07'0 0.0
2017-Oct-13 07:30N 40°39' W 074°07'0 0.0
2017-Oct-13 07:00N 40°38' W 074°07'0 0.0
2017-Oct-13 06:30N 40°39' W 074°07'0 0.0
2017-Oct-13 06:00N 40°39' W 074°07'1 1.8
2017-Oct-13 05:30N 40°39' W 074°08'3 6.4
2017-Oct-13 04:59N 40°37' W 074°12'4 7.4
2017-Oct-13 04:29N 40°33' W 074°14'1 1.6
2017-Oct-13 03:54N 40°33' W 074°15'0 0.2
2017-Oct-13 02:54N 40°33' W 074°15'2 4.1
2017-Oct-13 02:25N 40°34' W 074°13'3 7.1
2017-Oct-13 02:00N 40°37' W 074°12'3 6.2
2017-Oct-13 01:30N 40°39' W 074°09'2 1.2
2017-Oct-13 00:11N 40°39' W 074°07'0 1.0
2017-Oct-13 00:00N 40°39' W 074°07'5 9.2
2017-Oct-12 23:30N 40°41' W 074°01'4 8.4
2017-Oct-12 23:00N 40°44' W 073°58'3 5.2
2017-Oct-12 22:30N 40°42' W 074°00'4 7.4
2017-Oct-12 22:00N 40°39' W 074°03'3 6.0
2017-Oct-12 21:30N 40°41' W 074°00'0 0.2
2017-Oct-12 20:56N 40°41' W 074°00'0 0.1
2017-Oct-12 20:24N 40°42' W 074°00'3 8.2
2017-Oct-12 20:00N 40°39' W 074°03'3 5.1
2017-Oct-12 19:29N 40°39' W 074°07'3 7.2
2017-Oct-12 19:00N 40°38' W 074°11'5 1.1
2017-Oct-12 14:55N 40°34' W 074°13'4 9.4
2017-Oct-12 14:30N 40°38' W 074°12'4 3.7
2017-Oct-12 13:30N 40°39' W 074°07'0 0.0
2017-Oct-12 12:57N 40°39' W 074°07'0 0.0
2017-Oct-12 12:27N 40°39' W 074°07'0 0.0
2017-Oct-12 11:51N 40°38' W 074°07'0 0.0
2017-Oct-12 11:21N 40°38' W 074°07'0 0.0
2017-Oct-12 11:00N 40°39' W 074°07'0 0.0
2017-Oct-12 10:21N 40°38' W 074°07'0 0.0
2017-Oct-12 09:57N 40°38' W 074°07'0 0.0
2017-Oct-12 09:21N 40°39' W 074°07'0 0.0
2017-Oct-12 08:51N 40°39' W 074°07'0 0.0
2017-Oct-12 08:27N 40°38' W 074°07'0 0.0
2017-Oct-12 07:57N 40°39' W 074°07'0 0.0
2017-Oct-12 07:21N 40°39' W 074°07'0 0.0
2017-Oct-12 06:57N 40°38' W 074°07'0 0.1
2017-Oct-12 06:30N 40°39' W 074°07'0 0.5
2017-Oct-12 05:40N 40°39' W 074°07'0 1.8
2017-Oct-12 05:30N 40°39' W 074°06'0 0.5
2017-Oct-12 04:37N 40°39' W 074°06'0 0.0
2017-Oct-12 04:25N 40°39' W 074°06'0 0.0
2017-Oct-12 03:53N 40°39' W 074°06'0 0.0
2017-Oct-12 03:30N 40°39' W 074°06'2 3.1
2017-Oct-12 03:00N 40°39' W 074°04'510.3
2017-Oct-12 02:30N 40°43' W 073°59'5 9.8
2017-Oct-12 02:00N 40°47' W 073°56'2 4.0
2017-Oct-12 01:30N 40°45' W 073°57'3 6.2
2017-Oct-12 01:00N 40°42' W 073°59'4 8.2
2017-Oct-12 00:30N 40°40' W 074°03'2 3.5
2017-Oct-12 00:00N 40°39' W 074°05'0 0.1
2017-Oct-11 23:30N 40°39' W 074°05'2 3.6
2017-Oct-11 23:00N 40°38' W 074°07'0 0.0
2017-Oct-11 22:29N 40°38' W 074°07'0 0.0
2017-Oct-11 22:00N 40°39' W 074°07'0 0.0
2017-Oct-11 21:28N 40°39' W 074°07'0 0.0
2017-Oct-11 20:55N 40°38' W 074°07'0 0.0
2017-Oct-11 20:30N 40°39' W 074°07'0 0.0
2017-Oct-11 20:00N 40°38' W 074°07'0 0.0
2017-Oct-11 19:30N 40°39' W 074°07'0 0.0
2017-Oct-11 19:00N 40°39' W 074°07'0 0.2
2017-Oct-11 18:30N 40°39' W 074°07'0 0.1
2017-Oct-11 18:01N 40°39' W 074°07'4 8.9
2017-Oct-11 17:30N 40°41' W 074°02'4 8.5
2017-Oct-11 17:01N 40°44' W 073°58'173 6.3
2017-Oct-10 13:37N 41°58' W 070°29'1 8.5
2017-Oct-10 13:28N 41°59' W 070°30'7 8.3
2017-Oct-10 12:37N 42°06' W 070°31'1 8.3
2017-Oct-10 12:29N 42°07' W 070°32'4 8.7
2017-Oct-10 12:00N 42°11' W 070°34'4 9.1
2017-Oct-10 11:30N 42°14' W 070°38'5 9.1
2017-Oct-10 11:00N 42°18' W 070°42'5 9.0
2017-Oct-10 10:30N 42°21' W 070°47'4 8.7
2017-Oct-10 10:00N 42°23' W 070°52'4 8.8
2017-Oct-10 09:31N 42°20' W 070°57'4 8.4
2017-Oct-10 09:00N 42°22' W 071°02'2 3.1
2017-Oct-10 08:30N 42°23' W 071°02'1 1.5
2017-Oct-10 08:00N 42°24' W 071°01'0 0.0
2017-Oct-10 07:31N 42°24' W 071°01'0 0.0
2017-Oct-10 07:00N 42°24' W 071°01'0 0.0
2017-Oct-10 06:30N 42°24' W 071°01'0 0.0
2017-Oct-10 05:05N 42°24' W 071°01'0 0.0
2017-Oct-10 04:59N 42°24' W 071°01'0 0.0
2017-Oct-10 04:29N 42°24' W 071°01'0 0.0
2017-Oct-10 03:59N 42°24' W 071°01'0 0.0
2017-Oct-10 03:23N 42°24' W 071°01'0 0.0
2017-Oct-10 02:59N 42°24' W 071°01'0 0.0
2017-Oct-10 02:23N 42°24' W 071°01'0 0.0
2017-Oct-10 01:50N 42°24' W 071°01'0 0.0
2017-Oct-10 01:26N 42°24' W 071°01'0 0.0
2017-Oct-10 00:59N 42°24' W 071°01'0 0.0
2017-Oct-10 00:23N 42°24' W 071°01'0 0.0
2017-Oct-09 23:59N 42°24' W 071°01'0 0.0
2017-Oct-09 23:29N 42°24' W 071°01'0 0.0
2017-Oct-09 22:59N 42°24' W 071°01'0 0.0
2017-Oct-09 22:29N 42°24' W 071°01'0 0.0
2017-Oct-09 22:01N 42°24' W 071°01'0 0.0
2017-Oct-09 21:30N 42°24' W 071°01'0 0.0
2017-Oct-09 21:00N 42°24' W 071°01'0 0.0
2017-Oct-09 20:30N 42°24' W 071°01'0 0.0
2017-Oct-09 20:00N 42°24' W 071°01'0 0.0
2017-Oct-09 19:30N 42°24' W 071°01'0 0.3
2017-Oct-09 19:00N 42°23' W 071°01'2 4.3
2017-Oct-09 18:30N 42°22' W 071°02'4 7.4
2017-Oct-09 18:01N 42°20' W 070°58'4 8.0
2017-Oct-09 17:30N 42°23' W 070°54'4 8.2
2017-Oct-09 17:00N 42°22' W 070°48'4 8.8
2017-Oct-09 16:30N 42°20' W 070°43'92 3.5
2017-Oct-08 14:09N 41°14' W 072°10'1 6.2
2017-Oct-08 14:00N 41°14' W 072°11'4 7.1
2017-Oct-08 13:29N 41°13' W 072°16'3 7.2
2017-Oct-08 13:01N 41°12' W 072°20'4 7.2
2017-Oct-08 12:30N 41°11' W 072°25'4 7.9
2017-Oct-08 12:00N 41°10' W 072°30'4 8.7
2017-Oct-08 11:30N 41°11' W 072°36'4 9.2
2017-Oct-08 11:01N 41°11' W 072°41'  

Dump ship's entire track history